createdAt,value
2022-10-22T00:00:16.782Z,98.45
2022-10-22T00:00:48.412Z,98.31
2022-10-22T00:01:20.286Z,97.98
2022-10-22T00:01:51.753Z,98.30
2022-10-22T00:02:23.364Z,98.15
2022-10-22T00:02:54.898Z,98.08
2022-10-22T00:03:26.490Z,98.20
2022-10-22T00:03:57.899Z,98.12
2022-10-22T00:04:34.375Z,98.15
2022-10-22T00:05:07.308Z,97.61
2022-10-22T00:05:38.796Z,97.86
2022-10-22T00:06:10.278Z,98.11
2022-10-22T00:06:42.820Z,98.17
2022-10-22T00:07:14.741Z,98.43
2022-10-22T00:07:46.151Z,98.25
2022-10-22T00:08:17.959Z,98.04
2022-10-22T00:08:49.437Z,97.76
2022-10-22T00:09:21.034Z,98.39
2022-10-22T00:09:52.641Z,98.33
2022-10-22T00:10:24.203Z,98.25
2022-10-22T00:10:55.670Z,98.42
2022-10-22T00:11:27.190Z,98.05
2022-10-22T00:11:58.603Z,97.87
2022-10-22T00:12:30.149Z,97.54
2022-10-22T00:13:01.490Z,97.57
2022-10-22T00:13:32.898Z,97.93
2022-10-22T00:14:04.969Z,98.05
2022-10-22T00:14:37.007Z,97.99
2022-10-22T00:15:08.754Z,97.86
2022-10-22T00:15:40.322Z,98.50
2022-10-22T00:16:11.988Z,98.18
2022-10-22T00:16:43.860Z,98.47
2022-10-22T00:17:15.447Z,98.17
2022-10-22T00:17:47.246Z,98.34
2022-10-22T00:18:18.923Z,98.64
2022-10-22T00:18:50.367Z,98.36
2022-10-22T00:19:21.950Z,98.42
2022-10-22T00:19:53.412Z,98.47
2022-10-22T00:20:24.837Z,98.21
2022-10-22T00:20:56.538Z,98.45
2022-10-22T00:21:29.132Z,98.35
2022-10-22T00:22:00.495Z,98.30
2022-10-22T00:22:32.885Z,98.21
2022-10-22T00:23:04.398Z,97.79
2022-10-22T00:23:35.859Z,97.95
2022-10-22T00:24:07.785Z,97.67
2022-10-22T00:24:40.186Z,98.06
2022-10-22T00:25:11.664Z,98.14
2022-10-22T00:25:43.095Z,97.90
2022-10-22T00:26:14.510Z,97.54
2022-10-22T00:26:46.202Z,97.79
2022-10-22T00:27:17.911Z,97.76
2022-10-22T00:27:49.375Z,97.27
2022-10-22T00:28:20.946Z,97.80
2022-10-22T00:28:53.202Z,97.25
2022-10-22T00:29:25.005Z,97.83
2022-10-22T00:29:56.430Z,97.45
2022-10-22T00:30:28.057Z,97.43
2022-10-22T00:31:00.917Z,97.80
2022-10-22T00:31:32.402Z,97.12
2022-10-22T00:32:04.923Z,97.70
2022-10-22T00:32:36.514Z,97.64
2022-10-22T00:33:08.088Z,97.42
2022-10-22T00:33:39.907Z,97.29
2022-10-22T00:34:11.504Z,97.21
2022-10-22T00:34:43.125Z,97.55
2022-10-22T00:35:14.716Z,97.28
2022-10-22T00:35:47.372Z,97.14
2022-10-22T00:36:18.933Z,97.79
2022-10-22T00:36:51.173Z,98.15
2022-10-22T00:37:22.676Z,97.72
2022-10-22T00:37:54.095Z,97.83
2022-10-22T00:38:25.709Z,97.65
2022-10-22T00:38:57.079Z,98.20
2022-10-22T00:39:29.188Z,97.80
2022-10-22T00:40:00.755Z,97.56
2022-10-22T00:40:32.459Z,97.49
2022-10-22T00:41:04.038Z,97.79
2022-10-22T00:41:35.527Z,97.36
2022-10-22T00:42:07.178Z,97.23
2022-10-22T00:42:39.121Z,97.59
2022-10-22T00:43:12.734Z,97.32
2022-10-22T00:43:56.380Z,97.27
2022-10-22T00:45:05.520Z,97.74
2022-10-22T00:45:36.932Z,98.00
2022-10-22T00:46:08.307Z,97.70
2022-10-22T00:46:39.989Z,97.79
2022-10-22T00:47:11.571Z,98.07
2022-10-22T00:47:49.878Z,98.06
2022-10-22T00:48:27.198Z,98.01
2022-10-22T00:49:02.341Z,98.35
2022-10-22T00:49:33.958Z,99.26
2022-10-22T00:50:09.768Z,99.34
2022-10-22T00:50:50.723Z,99.57
2022-10-22T00:51:26.859Z,99.87
2022-10-22T00:51:58.452Z,99.13
2022-10-22T00:52:30.310Z,100.00
2022-10-22T00:53:03.930Z,99.91
2022-10-22T00:53:41.707Z,99.38
2022-10-22T00:54:13.345Z,99.41
2022-10-22T00:54:45.040Z,99.88
2022-10-22T00:55:18.438Z,99.44
2022-10-22T00:55:53.160Z,99.83
2022-10-22T00:56:24.848Z,99.59
2022-10-22T00:56:56.488Z,100.00
2022-10-22T00:57:28.600Z,100.00
2022-10-22T00:58:02.202Z,99.87
2022-10-22T00:58:36.775Z,100.00
2022-10-22T00:59:40.782Z,99.65
2022-10-22T01:00:12.891Z,99.34
2022-10-22T01:00:44.781Z,99.29
2022-10-22T01:01:24.721Z,99.33
2022-10-22T01:01:56.297Z,99.62
2022-10-22T01:02:27.761Z,99.62
2022-10-22T01:02:59.544Z,99.72
2022-10-22T01:03:32.191Z,99.00
2022-10-22T01:04:03.686Z,99.28
2022-10-22T01:04:35.181Z,98.80
2022-10-22T01:05:07.344Z,99.10
2022-10-22T01:05:44.170Z,99.22
2022-10-22T01:06:26.762Z,99.23
2022-10-22T01:06:58.593Z,98.81
2022-10-22T01:07:30.336Z,98.85
2022-10-22T01:08:02.084Z,99.52
2022-10-22T01:08:43.967Z,99.49
2022-10-22T01:09:33.914Z,99.51
2022-10-22T01:10:11.748Z,99.24
2022-10-22T01:10:58.763Z,99.09
2022-10-22T01:11:46.515Z,99.44
2022-10-22T01:12:39.831Z,99.16
2022-10-22T01:13:53.116Z,98.88
2022-10-22T01:15:03.889Z,99.41
2022-10-22T01:15:48.564Z,99.45
2022-10-22T01:16:41.835Z,99.75
2022-10-22T01:17:30.705Z,99.27
2022-10-22T01:18:37.776Z,99.75
2022-10-22T01:19:30.442Z,99.71
2022-10-22T01:20:14.800Z,99.79
2022-10-22T01:20:58.146Z,99.52
2022-10-22T01:21:35.992Z,99.23
2022-10-22T01:22:23.843Z,99.33
2022-10-22T01:23:11.219Z,99.37
2022-10-22T01:24:03.563Z,100.00
2022-10-22T01:24:49.376Z,99.43
2022-10-22T01:25:55.971Z,99.66
2022-10-22T01:26:57.048Z,99.52
2022-10-22T01:27:39.795Z,100.00
2022-10-22T01:28:18.520Z,99.82
2022-10-22T01:29:18.543Z,99.72
2022-10-22T01:29:51.890Z,99.46
2022-10-22T01:30:24.862Z,100.00
2022-10-22T01:30:59.659Z,99.88
2022-10-22T01:31:39.117Z,100.00
2022-10-22T01:32:15.209Z,99.68
2022-10-22T01:32:51.775Z,99.95
2022-10-22T01:33:25.929Z,99.88
2022-10-22T01:34:00.367Z,100.00
2022-10-22T01:34:33.334Z,100.00
2022-10-22T01:35:09.283Z,100.00
2022-10-22T01:35:44.369Z,100.00
2022-10-22T01:36:17.689Z,100.00
2022-10-22T01:36:51.731Z,100.00
2022-10-22T01:37:28.654Z,100.00
2022-10-22T01:38:04.201Z,100.00
2022-10-22T01:38:36.429Z,100.00
2022-10-22T01:39:08.792Z,100.00
2022-10-22T01:39:44.019Z,100.00
2022-10-22T01:40:16.472Z,100.00
2022-10-22T01:40:50.135Z,100.00
2022-10-22T01:41:21.698Z,100.00
2022-10-22T01:41:55.708Z,100.00
2022-10-22T01:42:27.188Z,100.00
2022-10-22T01:43:00.745Z,100.00
2022-10-22T01:43:32.149Z,100.00
2022-10-22T01:44:03.588Z,100.00
2022-10-22T01:45:14.645Z,100.00
2022-10-22T01:45:50.330Z,100.00
2022-10-22T01:46:25.141Z,100.00
2022-10-22T01:47:11.879Z,100.00
2022-10-22T01:47:50.969Z,100.00
2022-10-22T01:48:53.511Z,100.00
2022-10-22T01:49:40.010Z,100.00
2022-10-22T01:50:26.168Z,100.00
2022-10-22T01:51:07.027Z,100.00
2022-10-22T01:51:55.429Z,100.00
2022-10-22T01:52:51.437Z,100.00
2022-10-22T01:53:30.592Z,100.00
2022-10-22T01:54:31.271Z,100.00
2022-10-22T01:55:36.205Z,100.00
2022-10-22T01:56:28.674Z,100.00
2022-10-22T01:57:19.510Z,100.00
2022-10-22T01:58:18.315Z,100.00
2022-10-22T01:58:55.827Z,100.00
2022-10-22T01:59:39.370Z,100.00
2022-10-22T02:00:13.489Z,100.00
2022-10-22T02:00:55.292Z,100.00
2022-10-22T02:01:42.746Z,100.00
2022-10-22T02:02:58.351Z,99.96
2022-10-22T02:03:40.668Z,100.00
2022-10-22T02:04:23.045Z,100.00
2022-10-22T02:05:03.760Z,100.00
2022-10-22T02:05:45.928Z,99.92
2022-10-22T02:06:23.516Z,100.00
2022-10-22T02:06:59.120Z,100.00
2022-10-22T02:07:41.273Z,100.00
2022-10-22T02:08:18.064Z,100.00
2022-10-22T02:08:52.055Z,100.00
2022-10-22T02:09:27.296Z,100.00
2022-10-22T02:10:00.921Z,100.00
2022-10-22T02:10:33.143Z,100.00
2022-10-22T02:11:05.693Z,100.00
2022-10-22T02:11:37.870Z,100.00
2022-10-22T02:12:10.610Z,100.00
2022-10-22T02:12:44.974Z,100.00
2022-10-22T02:13:24.378Z,100.00
2022-10-22T02:14:01.195Z,100.00
2022-10-22T02:14:35.650Z,99.96
2022-10-22T02:15:13.404Z,99.55
2022-10-22T02:15:46.881Z,99.46
2022-10-22T02:16:27.695Z,99.54
2022-10-22T02:17:00.295Z,99.71
2022-10-22T02:17:34.898Z,99.27
2022-10-22T02:18:09.217Z,99.36
2022-10-22T02:18:44.982Z,99.39
2022-10-22T02:19:28.391Z,99.35
2022-10-22T02:20:12.768Z,99.31
2022-10-22T02:20:44.462Z,99.39
2022-10-22T02:21:16.599Z,98.94
2022-10-22T02:21:48.209Z,99.04
2022-10-22T02:22:20.593Z,99.41
2022-10-22T02:22:52.750Z,99.47
2022-10-22T02:23:24.416Z,99.27
2022-10-22T02:23:56.449Z,99.38
2022-10-22T02:24:28.250Z,99.13
2022-10-22T02:25:00.394Z,99.46
2022-10-22T02:25:38.579Z,99.39
2022-10-22T02:26:21.751Z,99.21
2022-10-22T02:27:05.767Z,99.51
2022-10-22T02:27:49.227Z,98.93
2022-10-22T02:28:43.472Z,98.82
2022-10-22T02:29:27.732Z,99.06
2022-10-22T02:30:08.628Z,99.25
2022-10-22T02:30:44.549Z,99.41
2022-10-22T02:31:24.183Z,99.46
2022-10-22T02:31:58.483Z,98.90
2022-10-22T02:32:40.440Z,99.19
2022-10-22T02:33:18.353Z,99.23
2022-10-22T02:33:54.656Z,99.28
2022-10-22T02:34:30.763Z,99.27
2022-10-22T02:35:03.752Z,99.11
2022-10-22T02:35:36.363Z,99.27
2022-10-22T02:36:08.943Z,99.33
2022-10-22T02:36:46.692Z,98.86
2022-10-22T02:37:22.808Z,99.25
2022-10-22T02:37:56.481Z,99.40
2022-10-22T02:38:29.101Z,99.11
2022-10-22T02:39:01.708Z,99.00
2022-10-22T02:39:34.010Z,99.37
2022-10-22T02:40:06.418Z,99.30
2022-10-22T02:40:38.220Z,99.34
2022-10-22T02:41:10.334Z,99.27
2022-10-22T02:41:42.658Z,99.16
2022-10-22T02:42:14.770Z,99.33
2022-10-22T02:42:48.117Z,99.60
2022-10-22T02:43:19.739Z,99.52
2022-10-22T02:43:55.030Z,100.00
2022-10-22T02:44:26.497Z,99.99
2022-10-22T02:44:58.093Z,99.92
2022-10-22T02:45:29.776Z,99.74
2022-10-22T02:46:01.293Z,99.64
2022-10-22T02:46:33.095Z,99.48
2022-10-22T02:47:04.841Z,99.88
2022-10-22T02:47:36.342Z,99.77
2022-10-22T02:48:07.839Z,99.01
2022-10-22T02:48:39.265Z,99.50
2022-10-22T02:49:10.678Z,99.27
2022-10-22T02:49:42.083Z,99.56
2022-10-22T02:50:14.149Z,99.73
2022-10-22T02:50:45.573Z,99.72
2022-10-22T02:51:17.056Z,99.81
2022-10-22T02:51:48.782Z,99.50
2022-10-22T02:52:20.277Z,99.64
2022-10-22T02:52:51.696Z,99.92
2022-10-22T02:53:23.153Z,99.84
2022-10-22T02:53:54.558Z,99.45
2022-10-22T02:54:26.642Z,99.65
2022-10-22T02:54:58.022Z,99.66
2022-10-22T02:55:29.650Z,99.71
2022-10-22T02:56:01.238Z,99.68
2022-10-22T02:56:33.341Z,99.70
2022-10-22T02:57:04.914Z,99.18
2022-10-22T02:57:36.692Z,99.51
2022-10-22T02:58:08.161Z,99.00
2022-10-22T02:58:39.728Z,99.40
2022-10-22T02:59:11.318Z,99.35
2022-10-22T02:59:42.850Z,98.95
2022-10-22T03:00:15.554Z,99.57
2022-10-22T03:00:48.766Z,99.60
2022-10-22T03:01:20.281Z,99.51
2022-10-22T03:01:51.970Z,99.07
2022-10-22T03:02:23.588Z,99.18
2022-10-22T03:02:54.996Z,99.36
2022-10-22T03:03:26.528Z,99.29
2022-10-22T03:03:57.888Z,99.47
2022-10-22T03:04:29.453Z,98.97
2022-10-22T03:05:01.027Z,99.37
2022-10-22T03:05:32.587Z,99.40
2022-10-22T03:06:04.241Z,99.40
2022-10-22T03:06:35.875Z,99.78
2022-10-22T03:07:07.403Z,99.81
2022-10-22T03:07:39.308Z,99.91
2022-10-22T03:08:11.008Z,99.66
2022-10-22T03:08:42.727Z,99.57
2022-10-22T03:09:14.238Z,99.61
2022-10-22T03:09:45.768Z,99.76
2022-10-22T03:10:17.357Z,99.66
2022-10-22T03:10:48.791Z,99.50
2022-10-22T03:11:20.257Z,98.97
2022-10-22T03:11:51.833Z,99.20
2022-10-22T03:12:23.318Z,99.58
2022-10-22T03:12:54.797Z,99.30
2022-10-22T03:13:26.179Z,99.51
2022-10-22T03:13:57.700Z,99.90
2022-10-22T03:14:29.129Z,99.80
2022-10-22T03:15:00.661Z,99.22
2022-10-22T03:15:32.208Z,99.97
2022-10-22T03:16:03.874Z,99.84
2022-10-22T03:16:35.437Z,99.22
2022-10-22T03:17:07.029Z,99.22
2022-10-22T03:17:38.797Z,99.55
2022-10-22T03:18:10.398Z,99.38
2022-10-22T03:18:42.082Z,99.35
2022-10-22T03:19:13.557Z,99.47
2022-10-22T03:19:45.184Z,99.44
2022-10-22T03:20:16.636Z,99.52
2022-10-22T03:20:48.139Z,99.60
2022-10-22T03:21:28.375Z,99.27
2022-10-22T03:22:04.284Z,99.34
2022-10-22T03:22:36.837Z,99.07
2022-10-22T03:23:08.462Z,99.15
2022-10-22T03:23:42.607Z,99.34
2022-10-22T03:24:19.940Z,99.54
2022-10-22T03:24:54.765Z,99.37
2022-10-22T03:25:28.510Z,99.60
2022-10-22T03:26:32.591Z,99.80
2022-10-22T03:27:04.161Z,99.64
2022-10-22T03:27:38.371Z,100.00
2022-10-22T03:28:13.002Z,99.82
2022-10-22T03:28:46.782Z,100.00
2022-10-22T03:29:19.751Z,99.93
2022-10-22T03:29:52.560Z,100.00
2022-10-22T03:30:23.981Z,100.00
2022-10-22T03:30:55.450Z,100.00
2022-10-22T03:31:26.929Z,100.00
2022-10-22T03:31:58.557Z,100.00
2022-10-22T03:32:29.962Z,100.00
2022-10-22T03:33:01.461Z,100.00
2022-10-22T03:33:33.196Z,100.00
2022-10-22T03:34:04.783Z,100.00
2022-10-22T03:34:36.407Z,100.00
2022-10-22T03:35:08.089Z,100.00
2022-10-22T03:35:44.685Z,100.00
2022-10-22T03:36:16.098Z,100.00
2022-10-22T03:36:48.610Z,100.00
2022-10-22T03:37:20.561Z,100.00
2022-10-22T03:37:52.355Z,100.00
2022-10-22T03:38:23.986Z,100.00
2022-10-22T03:38:55.640Z,100.00
2022-10-22T03:39:29.358Z,100.00
2022-10-22T03:40:01.750Z,100.00
2022-10-22T03:40:33.284Z,100.00
2022-10-22T03:41:04.937Z,100.00
2022-10-22T03:41:36.569Z,100.00
2022-10-22T03:42:08.839Z,100.00
2022-10-22T03:42:41.562Z,100.00
2022-10-22T03:43:13.419Z,100.00
2022-10-22T03:43:49.785Z,100.00
2022-10-22T03:44:22.621Z,100.00
2022-10-22T03:44:54.055Z,100.00
2022-10-22T03:45:25.690Z,100.00
2022-10-22T03:45:57.193Z,100.00
2022-10-22T03:46:28.908Z,100.00
2022-10-22T03:47:02.630Z,100.00
2022-10-22T03:47:34.494Z,100.00
2022-10-22T03:48:06.312Z,100.00
2022-10-22T03:48:37.695Z,100.00
2022-10-22T03:49:09.516Z,100.00
2022-10-22T03:49:41.005Z,100.00
2022-10-22T03:50:12.490Z,100.00
2022-10-22T03:50:44.033Z,100.00
2022-10-22T03:51:15.651Z,100.00
2022-10-22T03:51:47.102Z,100.00
2022-10-22T03:52:18.687Z,100.00
2022-10-22T03:52:50.097Z,100.00
2022-10-22T03:53:21.882Z,100.00
2022-10-22T03:53:53.343Z,100.00
2022-10-22T03:54:25.000Z,100.00
2022-10-22T03:54:56.558Z,100.00
2022-10-22T03:55:28.713Z,100.00
2022-10-22T03:56:00.177Z,100.00
2022-10-22T03:56:31.668Z,100.00
2022-10-22T03:57:04.911Z,100.00
2022-10-22T03:57:37.047Z,100.00
2022-10-22T03:58:08.837Z,100.00
2022-10-22T03:58:41.377Z,100.00
2022-10-22T03:59:13.165Z,100.00
2022-10-22T03:59:46.058Z,100.00
2022-10-22T04:00:17.921Z,100.00
2022-10-22T04:00:49.469Z,100.00
2022-10-22T04:01:21.160Z,100.00
2022-10-22T04:01:52.793Z,100.00
2022-10-22T04:02:24.236Z,100.00
2022-10-22T04:02:55.737Z,100.00
2022-10-22T04:03:27.202Z,100.00
2022-10-22T04:03:59.084Z,100.00
2022-10-22T04:04:30.953Z,100.00
2022-10-22T04:05:02.622Z,100.00
2022-10-22T04:05:34.395Z,100.00
2022-10-22T04:06:11.949Z,100.00
2022-10-22T04:06:43.408Z,100.00
2022-10-22T04:07:14.910Z,100.00
2022-10-22T04:07:46.443Z,100.00
2022-10-22T04:08:18.101Z,100.00
2022-10-22T04:08:49.909Z,100.00
2022-10-22T04:09:21.644Z,100.00
2022-10-22T04:09:53.185Z,100.00
2022-10-22T04:10:24.687Z,100.00
2022-10-22T04:10:56.350Z,100.00
2022-10-22T04:11:27.871Z,100.00
2022-10-22T04:12:00.490Z,100.00
2022-10-22T04:12:32.133Z,100.00
2022-10-22T04:13:03.710Z,100.00
2022-10-22T04:13:35.773Z,100.00
2022-10-22T04:14:07.290Z,100.00
2022-10-22T04:14:38.821Z,100.00
2022-10-22T04:15:10.401Z,100.00
2022-10-22T04:15:42.016Z,100.00
2022-10-22T04:16:19.534Z,100.00
2022-10-22T04:16:50.915Z,100.00
2022-10-22T04:17:22.461Z,100.00
2022-10-22T04:17:54.768Z,100.00
2022-10-22T04:18:26.205Z,100.00
2022-10-22T04:18:58.365Z,100.00
2022-10-22T04:19:30.056Z,100.00
2022-10-22T04:20:02.605Z,100.00
2022-10-22T04:20:34.042Z,100.00
2022-10-22T04:21:07.053Z,100.00
2022-10-22T04:21:38.498Z,100.00
2022-10-22T04:22:09.929Z,100.00
2022-10-22T04:22:41.493Z,100.00
2022-10-22T04:23:13.571Z,100.00
2022-10-22T04:23:50.282Z,100.00
2022-10-22T04:24:21.758Z,100.00
2022-10-22T04:24:53.164Z,100.00
2022-10-22T04:25:24.707Z,100.00
2022-10-22T04:25:59.871Z,100.00
2022-10-22T04:26:31.366Z,100.00
2022-10-22T04:27:02.832Z,100.00
2022-10-22T04:27:35.330Z,100.00
2022-10-22T04:28:08.245Z,100.00
2022-10-22T04:28:40.109Z,100.00
2022-10-22T04:29:15.901Z,100.00
2022-10-22T04:29:48.010Z,100.00
2022-10-22T04:30:19.397Z,100.00
2022-10-22T04:30:50.947Z,100.00
2022-10-22T04:31:24.758Z,100.00
2022-10-22T04:31:56.297Z,100.00
2022-10-22T04:32:28.528Z,100.00
2022-10-22T04:33:00.021Z,100.00
2022-10-22T04:33:31.488Z,100.00
2022-10-22T04:34:03.079Z,100.00
2022-10-22T04:34:34.522Z,100.00
2022-10-22T04:35:06.368Z,100.00
2022-10-22T04:35:39.963Z,100.00
2022-10-22T04:36:17.359Z,100.00
2022-10-22T04:36:48.804Z,100.00
2022-10-22T04:37:20.892Z,100.00
2022-10-22T04:37:52.296Z,100.00
2022-10-22T04:38:23.855Z,100.00
2022-10-22T04:38:57.710Z,100.00
2022-10-22T04:39:29.272Z,100.00
2022-10-22T04:40:00.684Z,100.00
2022-10-22T04:40:32.306Z,100.00
2022-10-22T04:41:18.925Z,100.00
2022-10-22T04:41:50.357Z,100.00
2022-10-22T04:42:21.920Z,100.00
2022-10-22T04:42:53.560Z,100.00
2022-10-22T04:43:25.033Z,100.00
2022-10-22T04:43:57.291Z,100.00
2022-10-22T04:44:28.874Z,100.00
2022-10-22T04:45:00.378Z,100.00
2022-10-22T04:45:33.569Z,100.00
2022-10-22T04:46:05.752Z,100.00
2022-10-22T04:46:37.504Z,100.00
2022-10-22T04:47:08.973Z,100.00
2022-10-22T04:47:40.644Z,100.00
2022-10-22T04:48:12.264Z,100.00
2022-10-22T04:48:45.161Z,100.00
2022-10-22T04:49:16.669Z,100.00
2022-10-22T04:49:48.166Z,100.00
2022-10-22T04:50:19.556Z,100.00
2022-10-22T04:50:51.031Z,100.00
2022-10-22T04:51:25.556Z,100.00
2022-10-22T04:51:57.242Z,100.00
2022-10-22T04:52:28.714Z,100.00
2022-10-22T04:53:00.181Z,100.00
2022-10-22T04:53:31.650Z,100.00
2022-10-22T04:54:03.248Z,100.00
2022-10-22T04:54:34.737Z,100.00
2022-10-22T04:55:06.594Z,100.00
2022-10-22T04:55:38.218Z,100.00
2022-10-22T04:56:21.967Z,100.00
2022-10-22T04:56:53.376Z,100.00
2022-10-22T04:57:24.781Z,100.00
2022-10-22T04:57:56.180Z,100.00
2022-10-22T04:58:27.533Z,100.00
2022-10-22T04:59:01.646Z,100.00
2022-10-22T04:59:33.153Z,100.00
2022-10-22T05:00:05.286Z,100.00
2022-10-22T05:00:36.821Z,100.00
2022-10-22T05:01:13.602Z,100.00
2022-10-22T05:01:45.296Z,100.00
2022-10-22T05:02:16.725Z,100.00
2022-10-22T05:02:51.261Z,100.00
2022-10-22T05:03:25.193Z,100.00
2022-10-22T05:03:59.058Z,100.00
2022-10-22T05:04:30.568Z,100.00
2022-10-22T05:05:02.591Z,100.00
2022-10-22T05:05:34.074Z,100.00
2022-10-22T05:06:06.097Z,100.00
2022-10-22T05:06:37.986Z,100.00
2022-10-22T05:07:09.380Z,100.00
2022-10-22T05:07:41.012Z,100.00
2022-10-22T05:08:12.624Z,100.00
2022-10-22T05:08:44.586Z,100.00
2022-10-22T05:09:18.828Z,100.00
2022-10-22T05:09:50.293Z,100.00
2022-10-22T05:10:21.665Z,100.00
2022-10-22T05:10:53.151Z,100.00
2022-10-22T05:11:30.848Z,100.00
2022-10-22T05:12:02.186Z,100.00
2022-10-22T05:12:35.150Z,100.00
2022-10-22T05:13:06.677Z,100.00
2022-10-22T05:13:38.575Z,100.00
2022-10-22T05:14:11.106Z,100.00
2022-10-22T05:14:44.732Z,100.00
2022-10-22T05:15:16.475Z,100.00
2022-10-22T05:15:47.934Z,100.00
2022-10-22T05:16:19.459Z,100.00
2022-10-22T05:16:52.023Z,100.00
2022-10-22T05:17:23.508Z,100.00
2022-10-22T05:17:54.879Z,100.00
2022-10-22T05:18:26.333Z,100.00
2022-10-22T05:18:59.976Z,100.00
2022-10-22T05:19:31.981Z,100.00
2022-10-22T05:20:05.026Z,100.00
2022-10-22T05:20:40.709Z,100.00
2022-10-22T05:21:17.812Z,100.00
2022-10-22T05:21:49.867Z,100.00
2022-10-22T05:22:21.328Z,100.00
2022-10-22T05:22:52.760Z,100.00
2022-10-22T05:23:24.170Z,100.00
2022-10-22T05:23:56.770Z,100.00
2022-10-22T05:24:29.887Z,100.00
2022-10-22T05:25:01.441Z,100.00
2022-10-22T05:25:37.565Z,100.00
2022-10-22T05:26:11.021Z,100.00
2022-10-22T05:26:42.436Z,100.00
2022-10-22T05:27:14.149Z,100.00
2022-10-22T05:27:49.922Z,100.00
2022-10-22T05:28:21.504Z,100.00
2022-10-22T05:28:53.025Z,100.00
2022-10-22T05:29:24.851Z,100.00
2022-10-22T05:29:56.344Z,100.00
2022-10-22T05:30:27.807Z,100.00
2022-10-22T05:31:00.714Z,100.00
2022-10-22T05:31:32.182Z,100.00
2022-10-22T05:32:03.827Z,100.00
2022-10-22T05:32:35.866Z,100.00
2022-10-22T05:33:07.383Z,100.00
2022-10-22T05:33:39.940Z,100.00
2022-10-22T05:34:11.496Z,100.00
2022-10-22T05:34:43.045Z,100.00
2022-10-22T05:35:14.642Z,100.00
2022-10-22T05:35:46.851Z,100.00
2022-10-22T05:36:22.369Z,100.00
2022-10-22T05:36:53.888Z,100.00
2022-10-22T05:37:25.269Z,100.00
2022-10-22T05:38:28.394Z,100.00
2022-10-22T05:38:59.844Z,100.00
2022-10-22T05:39:31.303Z,100.00
2022-10-22T05:40:18.887Z,100.00
2022-10-22T05:41:05.382Z,100.00
2022-10-22T05:41:37.274Z,100.00
2022-10-22T05:42:08.832Z,100.00
2022-10-22T05:42:40.569Z,100.00
2022-10-22T05:43:12.731Z,100.00
2022-10-22T05:43:44.927Z,100.00
2022-10-22T05:44:16.507Z,100.00
2022-10-22T05:44:48.414Z,100.00
2022-10-22T05:45:19.983Z,100.00
2022-10-22T05:45:51.742Z,100.00
2022-10-22T05:46:25.914Z,100.00
2022-10-22T05:46:57.481Z,100.00
2022-10-22T05:47:32.117Z,100.00
2022-10-22T05:48:03.982Z,100.00
2022-10-22T05:48:37.017Z,100.00
2022-10-22T05:49:08.657Z,100.00
2022-10-22T05:49:40.163Z,100.00
2022-10-22T05:50:11.580Z,100.00
2022-10-22T05:50:43.061Z,100.00
2022-10-22T05:51:14.503Z,100.00
2022-10-22T05:51:46.811Z,100.00
2022-10-22T05:52:18.280Z,100.00
2022-10-22T05:52:49.727Z,100.00
2022-10-22T05:53:21.254Z,100.00
2022-10-22T05:53:55.126Z,100.00
2022-10-22T05:54:26.872Z,100.00
2022-10-22T05:54:58.288Z,100.00
2022-10-22T05:55:29.864Z,100.00
2022-10-22T05:56:06.626Z,100.00
2022-10-22T05:56:38.469Z,100.00
2022-10-22T05:57:09.909Z,100.00
2022-10-22T05:57:41.340Z,100.00
2022-10-22T05:58:13.741Z,100.00
2022-10-22T05:58:45.594Z,100.00
2022-10-22T05:59:17.211Z,100.00
2022-10-22T05:59:48.656Z,100.00
2022-10-22T06:00:20.237Z,100.00
2022-10-22T06:00:51.664Z,100.00
2022-10-22T06:01:28.612Z,100.00
2022-10-22T06:02:00.152Z,100.00
2022-10-22T06:02:31.797Z,100.00
2022-10-22T06:03:03.433Z,100.00
2022-10-22T06:03:35.378Z,100.00
2022-10-22T06:04:10.045Z,100.00
2022-10-22T06:04:41.550Z,100.00
2022-10-22T06:05:13.008Z,100.00
2022-10-22T06:05:44.460Z,100.00
2022-10-22T06:06:24.656Z,100.00
2022-10-22T06:06:56.255Z,100.00
2022-10-22T06:07:27.861Z,100.00
2022-10-22T06:07:59.379Z,100.00
2022-10-22T06:08:31.396Z,100.00
2022-10-22T06:09:30.626Z,100.00
2022-10-22T06:10:02.261Z,100.00
2022-10-22T06:10:33.846Z,100.00
2022-10-22T06:11:05.461Z,100.00
2022-10-22T06:11:37.054Z,100.00
2022-10-22T06:12:10.897Z,100.00
2022-10-22T06:12:42.749Z,100.00
2022-10-22T06:13:14.404Z,100.00
2022-10-22T06:13:47.188Z,100.00
2022-10-22T06:14:19.389Z,100.00
2022-10-22T06:14:51.199Z,100.00
2022-10-22T06:15:22.756Z,100.00
2022-10-22T06:15:54.179Z,100.00
2022-10-22T06:16:25.746Z,100.00
2022-10-22T06:16:59.664Z,100.00
2022-10-22T06:17:31.152Z,100.00
2022-10-22T06:18:02.907Z,100.00
2022-10-22T06:18:34.614Z,100.00
2022-10-22T06:19:06.847Z,100.00
2022-10-22T06:19:38.447Z,100.00
2022-10-22T06:20:10.551Z,100.00
2022-10-22T06:20:43.707Z,100.00
2022-10-22T06:21:16.355Z,100.00
2022-10-22T06:21:48.642Z,100.00
2022-10-22T06:22:20.076Z,100.00
2022-10-22T06:22:51.512Z,100.00
2022-10-22T06:23:34.140Z,100.00
2022-10-22T06:24:06.005Z,100.00
2022-10-22T06:24:40.434Z,100.00
2022-10-22T06:25:14.589Z,100.00
2022-10-22T06:25:56.820Z,100.00
2022-10-22T06:26:28.901Z,100.00
2022-10-22T06:27:00.329Z,100.00
2022-10-22T06:27:32.201Z,100.00
2022-10-22T06:28:04.146Z,100.00
2022-10-22T06:28:36.049Z,100.00
2022-10-22T06:29:08.171Z,100.00
2022-10-22T06:29:40.382Z,100.00
2022-10-22T06:30:12.169Z,100.00
2022-10-22T06:30:45.882Z,100.00
2022-10-22T06:31:18.410Z,100.00
2022-10-22T06:31:50.994Z,100.00
2022-10-22T06:32:22.586Z,100.00
2022-10-22T06:32:54.049Z,100.00
2022-10-22T06:33:26.453Z,100.00
2022-10-22T06:33:57.875Z,100.00
2022-10-22T06:34:29.386Z,100.00
2022-10-22T06:35:00.931Z,100.00
2022-10-22T06:35:33.338Z,100.00
2022-10-22T06:36:07.801Z,100.00
2022-10-22T06:37:17.604Z,100.00
2022-10-22T06:37:49.044Z,100.00
2022-10-22T06:38:20.935Z,100.00
2022-10-22T06:38:53.832Z,100.00
2022-10-22T06:39:25.280Z,100.00
2022-10-22T06:39:56.875Z,100.00
2022-10-22T06:40:28.459Z,100.00
2022-10-22T06:41:13.363Z,100.00
2022-10-22T06:41:45.333Z,100.00
2022-10-22T06:42:16.719Z,100.00
2022-10-22T06:42:48.189Z,100.00
2022-10-22T06:43:19.807Z,100.00
2022-10-22T06:43:51.349Z,100.00
2022-10-22T06:44:22.833Z,100.00
2022-10-22T06:44:54.345Z,100.00
2022-10-22T06:45:26.231Z,99.94
2022-10-22T06:46:07.168Z,100.00
2022-10-22T06:46:41.291Z,100.00
2022-10-22T06:47:14.782Z,100.00
2022-10-22T06:47:47.301Z,100.00
2022-10-22T06:48:18.671Z,100.00
2022-10-22T06:48:53.337Z,100.00
2022-10-22T06:49:24.793Z,100.00
2022-10-22T06:49:56.354Z,100.00
2022-10-22T06:50:27.766Z,100.00
2022-10-22T06:51:07.930Z,100.00
2022-10-22T06:51:39.801Z,100.00
2022-10-22T06:52:12.380Z,100.00
2022-10-22T06:52:43.885Z,100.00
2022-10-22T06:53:15.442Z,100.00
2022-10-22T06:53:47.464Z,100.00
2022-10-22T06:54:19.753Z,100.00
2022-10-22T06:55:09.004Z,100.00
2022-10-22T06:55:43.533Z,100.00
2022-10-22T06:56:18.432Z,100.00
2022-10-22T06:56:49.876Z,100.00
2022-10-22T06:57:21.478Z,100.00
2022-10-22T06:57:52.950Z,100.00
2022-10-22T06:58:24.584Z,100.00
2022-10-22T06:58:57.982Z,100.00
2022-10-22T06:59:29.594Z,100.00
2022-10-22T07:00:01.061Z,100.00
2022-10-22T07:01:11.752Z,100.00
2022-10-22T07:01:43.307Z,100.00
2022-10-22T07:02:14.826Z,100.00
2022-10-22T07:02:56.364Z,100.00
2022-10-22T07:03:30.819Z,100.00
2022-10-22T07:04:02.897Z,100.00
2022-10-22T07:04:34.419Z,100.00
2022-10-22T07:05:06.422Z,100.00
2022-10-22T07:05:37.919Z,100.00
2022-10-22T07:06:11.867Z,100.00
2022-10-22T07:06:43.345Z,100.00
2022-10-22T07:07:15.088Z,100.00
2022-10-22T07:07:46.793Z,100.00
2022-10-22T07:08:18.310Z,100.00
2022-10-22T07:08:49.895Z,100.00
2022-10-22T07:09:21.627Z,100.00
2022-10-22T07:09:53.118Z,100.00
2022-10-22T07:10:27.198Z,100.00
2022-10-22T07:11:15.927Z,100.00
2022-10-22T07:11:47.395Z,100.00
2022-10-22T07:12:18.847Z,100.00
2022-10-22T07:12:50.356Z,100.00